MV CSAV Venezuela — A8TE8 — position and weather

sailwx.info

Track history (hours):
 
Tides and Currents Weather Stations Pressure Air Temp Water Temp Dewpoint Dewpoint Depression Visibility Wind Speed Wind Dir Waves Ship Positions

MV CSAV Venezuela

Last reported at 2017-Oct-11 16:57 UTC. Time now 2017-Oct-20 12:43 UTC.
Position S 00°14' W 047°25'.
Warning: this ship's position is 8 days out of date.

Length 177 m; draft 9 m.

Type: Cargo ship. MMSI: 636091823.

Date/timePositionNaut miles runAvg speedWind from/ knotsBaromVisibWave heightAir tempDewpointWater temp
2017-Oct-11 16:57S 00°14' W 047°25'112 5.5
2017-Oct-10 20:28S 01°32' W 048°45'0 0.0
2017-Oct-10 19:58S 01°32' W 048°45'0 0.0
2017-Oct-10 19:28S 01°32' W 048°45'0 0.0
2017-Oct-10 07:16S 01°32' W 048°45'0 0.0
2017-Oct-09 16:23S 01°32' W 048°45'1 2.3
2017-Oct-09 16:00S 01°31' W 048°46'815.5
2017-Oct-09 15:30S 01°24' W 048°43'917.6
2017-Oct-09 15:01S 01°17' W 048°37'918.3
2017-Oct-09 14:31S 01°10' W 048°32'611.8
2017-Oct-09 14:01S 01°04' W 048°30'714.1
2017-Oct-09 13:30S 00°58' W 048°26'1613.1
2017-Oct-09 12:18S 00°42' W 048°25'514.3
2017-Oct-09 11:58S 00°38' W 048°23'613.6
2017-Oct-09 11:30S 00°33' W 048°19'714.4
2017-Oct-09 11:00S 00°28' W 048°15'713.7
2017-Oct-09 10:30S 00°23' W 048°09'715.0
2017-Oct-09 10:00S 00°20' W 048°02'715.0
2017-Oct-09 09:30S 00°16' W 047°56'816.8
2017-Oct-09 09:00S 00°10' W 047°51'  
2017-Oct-04 01:37N 31°19' W 023°05'10817.4
2017-Oct-03 19:24N 32°45' W 021°48'2717.2
2017-Oct-03 17:52N 33°07' W 021°29'1117.3
2017-Oct-03 17:14N 33°15' W 021°21'717.2
2017-Oct-03 16:51N 33°21' W 021°16'817.4
2017-Oct-03 16:21N 33°27' W 021°10'617.3
2017-Oct-03 16:00N 33°32' W 021°06'1017.4
2017-Oct-03 15:26N 33°40' W 020°58'11917.3
2017-Oct-03 08:32N 35°16' W 019°32'121.0
2017-Oct-03 08:30N 35°16' W 019°32'4617.4
2017-Oct-03 05:51N 35°53' W 018°57'717.5
2017-Oct-03 05:28N 35°58' W 018°52'5517.6
2017-Oct-03 02:23N 36°42' W 018°12'717.8
2017-Oct-03 02:00N 36°47' W 018°07'1017.9
2017-Oct-03 01:27N 36°55' W 017°59'6017.7
2017-Oct-02 22:05N 37°43' W 017°14'117.4
2017-Oct-02 22:01N 37°44' W 017°13'1017.3
2017-Oct-02 21:27N 37°51' W 017°06'1817.5
2017-Oct-02 20:24N 38°06' W 016°52'2017.5
2017-Oct-02 19:16N 38°22' W 016°37'517.3
2017-Oct-02 18:59N 38°27' W 016°34'1017.6
2017-Oct-02 18:25N 38°35' W 016°26'917.6
2017-Oct-02 17:53N 38°42' W 016°19'617.6
2017-Oct-02 17:31N 38°47' W 016°14'1017.6
2017-Oct-02 16:55N 38°55' W 016°06'717.7
2017-Oct-02 16:31N 39°01' W 016°00'1517.6
2017-Oct-02 15:39N 39°13' W 015°48'917.8
2017-Oct-02 15:08N 39°21' W 015°41'3117.8
2017-Oct-02 13:22N 39°46' W 015°17'617.5
2017-Oct-02 13:00N 39°51' W 015°13'918.1
2017-Oct-02 12:30N 39°58' W 015°05'1017.2
2017-Oct-02 11:56N 40°06' W 014°58'717.6
2017-Oct-02 11:30N 40°12' W 014°51'917.6
2017-Oct-02 11:00N 40°19' W 014°44'917.5
2017-Oct-02 10:30N 40°26' W 014°37'6417.7
2017-Oct-02 06:53N 41°17' W 013°47'1817.6
2017-Oct-02 05:52N 41°32' W 013°33'617.2
2017-Oct-02 05:30N 41°37' W 013°28'4018.0
2017-Oct-02 03:16N 42°09' W 012°55'518.0
2017-Oct-02 03:00N 42°12' W 012°51'  
Track history (hours):
 
Tides and Currents Weather Stations Pressure Air Temp Water Temp Dewpoint Dewpoint Depression Visibility Wind Speed Wind Dir Waves Ship Positions

MV CSAV Venezuela

Last reported at 2017-Oct-11 16:57 UTC. Time now 2017-Oct-20 12:43 UTC.
Position S 00°14' W 047°25'.
Warning: this ship's position is 8 days out of date.

Length 177 m; draft 9 m.

Type: Cargo ship. MMSI: 636091823.

Date/timePositionNaut miles runAvg speedWind from/ knotsBaromVisibWave heightAir tempDewpointWater temp
2017-Oct-11 16:57S 00°14' W 047°25'112 5.5
2017-Oct-10 20:28S 01°32' W 048°45'0 0.0
2017-Oct-10 19:58S 01°32' W 048°45'0 0.0
2017-Oct-10 19:28S 01°32' W 048°45'0 0.0
2017-Oct-10 07:16S 01°32' W 048°45'0 0.0
2017-Oct-09 16:23S 01°32' W 048°45'1 2.3
2017-Oct-09 16:00S 01°31' W 048°46'815.5
2017-Oct-09 15:30S 01°24' W 048°43'917.6
2017-Oct-09 15:01S 01°17' W 048°37'918.3
2017-Oct-09 14:31S 01°10' W 048°32'611.8
2017-Oct-09 14:01S 01°04' W 048°30'714.1
2017-Oct-09 13:30S 00°58' W 048°26'1613.1
2017-Oct-09 12:18S 00°42' W 048°25'514.3
2017-Oct-09 11:58S 00°38' W 048°23'613.6
2017-Oct-09 11:30S 00°33' W 048°19'714.4
2017-Oct-09 11:00S 00°28' W 048°15'713.7
2017-Oct-09 10:30S 00°23' W 048°09'715.0
2017-Oct-09 10:00S 00°20' W 048°02'715.0
2017-Oct-09 09:30S 00°16' W 047°56'816.8
2017-Oct-09 09:00S 00°10' W 047°51'  
2017-Oct-04 01:37N 31°19' W 023°05'10817.4
2017-Oct-03 19:24N 32°45' W 021°48'2717.2
2017-Oct-03 17:52N 33°07' W 021°29'1117.3
2017-Oct-03 17:14N 33°15' W 021°21'717.2
2017-Oct-03 16:51N 33°21' W 021°16'817.4
2017-Oct-03 16:21N 33°27' W 021°10'617.3
2017-Oct-03 16:00N 33°32' W 021°06'1017.4
2017-Oct-03 15:26N 33°40' W 020°58'11917.3
2017-Oct-03 08:32N 35°16' W 019°32'121.0
2017-Oct-03 08:30N 35°16' W 019°32'4617.4
2017-Oct-03 05:51N 35°53' W 018°57'717.5
2017-Oct-03 05:28N 35°58' W 018°52'5517.6
2017-Oct-03 02:23N 36°42' W 018°12'717.8
2017-Oct-03 02:00N 36°47' W 018°07'1017.9
2017-Oct-03 01:27N 36°55' W 017°59'6017.7
2017-Oct-02 22:05N 37°43' W 017°14'117.4
2017-Oct-02 22:01N 37°44' W 017°13'1017.3
2017-Oct-02 21:27N 37°51' W 017°06'1817.5
2017-Oct-02 20:24N 38°06' W 016°52'2017.5
2017-Oct-02 19:16N 38°22' W 016°37'517.3
2017-Oct-02 18:59N 38°27' W 016°34'1017.6
2017-Oct-02 18:25N 38°35' W 016°26'917.6
2017-Oct-02 17:53N 38°42' W 016°19'617.6
2017-Oct-02 17:31N 38°47' W 016°14'1017.6
2017-Oct-02 16:55N 38°55' W 016°06'717.7
2017-Oct-02 16:31N 39°01' W 016°00'1517.6
2017-Oct-02 15:39N 39°13' W 015°48'917.8
2017-Oct-02 15:08N 39°21' W 015°41'3117.8
2017-Oct-02 13:22N 39°46' W 015°17'617.5
2017-Oct-02 13:00N 39°51' W 015°13'918.1
2017-Oct-02 12:30N 39°58' W 015°05'1017.2
2017-Oct-02 11:56N 40°06' W 014°58'717.6
2017-Oct-02 11:30N 40°12' W 014°51'917.6
2017-Oct-02 11:00N 40°19' W 014°44'917.5
2017-Oct-02 10:30N 40°26' W 014°37'6417.7
2017-Oct-02 06:53N 41°17' W 013°47'1817.6
2017-Oct-02 05:52N 41°32' W 013°33'617.2
2017-Oct-02 05:30N 41°37' W 013°28'4018.0
2017-Oct-02 03:16N 42°09' W 012°55'518.0
2017-Oct-02 03:00N 42°12' W 012°51'  

Dump ship's entire track history